createdAt,value
2022-08-02T00:00:41.132Z,85.31
2022-08-02T00:01:41.163Z,85.22
2022-08-02T00:02:41.122Z,85.42
2022-08-02T00:03:41.125Z,85.16
2022-08-02T00:04:41.122Z,85.52
2022-08-02T00:05:41.115Z,85.92
2022-08-02T00:06:41.112Z,85.82
2022-08-02T00:07:41.572Z,85.52
2022-08-02T00:08:41.106Z,85.82
2022-08-02T00:09:41.108Z,85.62
2022-08-02T00:10:41.103Z,85.22
2022-08-02T00:11:43.173Z,84.71
2022-08-02T00:12:41.096Z,84.88
2022-08-02T00:13:41.093Z,84.91
2022-08-02T00:14:41.095Z,85.52
2022-08-02T00:15:41.089Z,85.11
2022-08-02T00:16:41.082Z,85.72
2022-08-02T00:17:41.082Z,85.92
2022-08-02T00:18:41.081Z,85.62
2022-08-02T00:19:41.076Z,85.72
2022-08-02T00:20:41.077Z,85.72
2022-08-02T00:21:41.089Z,85.11
2022-08-02T00:22:41.069Z,85.11
2022-08-02T00:24:03.318Z,85.02
2022-08-02T00:24:41.063Z,85.22
2022-08-02T00:25:55.352Z,85.11
2022-08-02T00:26:41.057Z,85.11
2022-08-02T00:27:41.056Z,85.52
2022-08-02T00:28:41.051Z,84.91
2022-08-02T00:29:42.691Z,85.62
2022-08-02T00:30:41.049Z,85.11
2022-08-02T00:31:41.045Z,85.22
2022-08-02T00:32:41.038Z,84.37
2022-08-02T00:34:26.164Z,83.87
2022-08-02T00:34:41.035Z,83.97
2022-08-02T00:35:41.044Z,83.46
2022-08-02T00:36:41.030Z,83.76
2022-08-02T00:37:41.027Z,83.76
2022-08-02T00:38:41.027Z,83.36
2022-08-02T00:39:41.030Z,83.46
2022-08-02T00:40:41.020Z,83.36
2022-08-02T00:41:41.019Z,82.96
2022-08-02T00:42:41.017Z,82.82
2022-08-02T00:43:41.014Z,83.36
2022-08-02T00:44:41.008Z,83.36
2022-08-02T00:46:03.486Z,83.46
2022-08-02T00:46:41.005Z,83.36
2022-08-02T00:47:41.007Z,83.56
2022-08-02T00:48:43.099Z,83.56
2022-08-02T00:49:41.125Z,83.46
2022-08-02T00:50:40.993Z,83.62
2022-08-02T00:51:40.991Z,83.36
2022-08-02T00:52:40.986Z,83.02
2022-08-02T00:53:40.982Z,82.62
2022-08-02T00:54:40.981Z,82.42
2022-08-02T00:55:40.979Z,83.42
2022-08-02T00:56:40.981Z,83.02
2022-08-02T00:57:40.974Z,83.16
2022-08-02T00:58:40.971Z,82.45
2022-08-02T00:59:40.967Z,82.65
2022-08-02T01:00:40.975Z,83.26
2022-08-02T01:01:56.235Z,83.36
2022-08-02T01:02:40.966Z,83.36
2022-08-02T01:03:40.957Z,83.36
2022-08-02T01:04:40.955Z,83.06
2022-08-02T01:06:10.182Z,83.26
2022-08-02T01:06:40.950Z,82.65
2022-08-02T01:07:40.947Z,82.71
2022-08-02T01:08:40.944Z,82.11
2022-08-02T01:09:40.937Z,82.62
2022-08-02T01:10:40.942Z,82.21
2022-08-02T01:11:40.936Z,82.71
2022-08-02T01:12:40.938Z,82.21
2022-08-02T01:13:40.934Z,82.21
2022-08-02T01:14:40.942Z,81.61
2022-08-02T01:15:40.927Z,81.85
2022-08-02T01:16:40.925Z,81.85
2022-08-02T01:17:40.920Z,82.01
2022-08-02T01:18:40.918Z,82.21
2022-08-02T01:19:40.915Z,82.25
2022-08-02T01:20:40.910Z,81.61
2022-08-02T01:21:40.911Z,81.15
2022-08-02T01:23:00.641Z,81.71
2022-08-02T01:23:40.905Z,81.61
2022-08-02T01:24:40.902Z,82.31
2022-08-02T01:25:40.908Z,81.71
2022-08-02T01:26:40.897Z,82.11
2022-08-02T01:27:40.893Z,82.62
2022-08-02T01:28:40.892Z,82.62
2022-08-02T01:29:40.886Z,82.21
2022-08-02T01:30:40.889Z,82.25
2022-08-02T01:31:40.882Z,82.56
2022-08-02T01:32:40.881Z,81.91
2022-08-02T01:33:40.877Z,82.31
2022-08-02T01:34:40.873Z,82.62
2022-08-02T01:35:50.623Z,82.25
2022-08-02T01:36:40.867Z,82.21
2022-08-02T01:37:40.865Z,82.31
2022-08-02T01:38:40.865Z,82.21
2022-08-02T01:39:40.858Z,82.25
2022-08-02T01:40:40.860Z,81.91
2022-08-02T01:41:40.855Z,81.81
2022-08-02T01:42:40.853Z,82.42
2022-08-02T01:43:40.856Z,82.31
2022-08-02T01:44:40.910Z,82.51
2022-08-02T01:45:40.841Z,82.11
2022-08-02T01:46:40.842Z,82.42
2022-08-02T01:47:40.839Z,82.51
2022-08-02T01:48:40.836Z,82.31
2022-08-02T01:49:40.970Z,82.31
2022-08-02T01:50:40.831Z,82.11
2022-08-02T01:51:40.832Z,82.31
2022-08-02T01:52:40.828Z,82.31
2022-08-02T01:53:40.823Z,81.81
2022-08-02T01:54:40.822Z,82.15
2022-08-02T01:55:57.698Z,81.91
2022-08-02T01:56:40.819Z,82.01
2022-08-02T01:57:41.982Z,81.91
2022-08-02T01:58:40.814Z,81.91
2022-08-02T01:59:40.809Z,82.11
2022-08-02T02:00:40.808Z,81.51
2022-08-02T02:01:40.852Z,81.91
2022-08-02T02:02:40.805Z,82.11
2022-08-02T02:03:41.597Z,82.21
2022-08-02T02:04:40.792Z,82.42
2022-08-02T02:05:40.794Z,82.35
2022-08-02T02:06:40.788Z,82.25
2022-08-02T02:07:40.787Z,81.85
2022-08-02T02:08:40.783Z,82.35
2022-08-02T02:09:50.451Z,82.15
2022-08-02T02:10:40.778Z,81.85
2022-08-02T02:12:05.182Z,81.95
2022-08-02T02:12:40.773Z,82.35
2022-08-02T02:13:40.768Z,82.56
2022-08-02T02:14:40.768Z,82.56
2022-08-02T02:15:40.845Z,82.65
2022-08-02T02:16:40.765Z,81.65
2022-08-02T02:18:10.658Z,82.45
2022-08-02T02:18:40.757Z,82.35
2022-08-02T02:19:40.756Z,81.15
2022-08-02T02:20:40.750Z,81.65
2022-08-02T02:21:41.470Z,81.65
2022-08-02T02:22:40.743Z,81.95
2022-08-02T02:23:40.833Z,82.05
2022-08-02T02:24:40.740Z,81.65
2022-08-02T02:25:40.732Z,81.95
2022-08-02T02:26:40.737Z,81.85
2022-08-02T02:27:40.735Z,82.31
2022-08-02T02:28:40.727Z,82.76
2022-08-02T02:29:40.723Z,82.65
2022-08-02T02:30:40.723Z,81.85
2022-08-02T02:31:40.717Z,82.65
2022-08-02T02:32:40.715Z,81.95
2022-08-02T02:33:40.714Z,82.05
2022-08-02T02:34:40.709Z,82.45
2022-08-02T02:35:40.708Z,81.85
2022-08-02T02:36:40.705Z,82.35
2022-08-02T02:37:40.701Z,82.25
2022-08-02T02:38:40.700Z,82.50
2022-08-02T02:39:40.694Z,82.29
2022-08-02T02:40:40.691Z,82.25
2022-08-02T02:41:40.689Z,82.19
2022-08-02T02:42:41.182Z,82.56
2022-08-02T02:43:40.683Z,82.09
2022-08-02T02:44:40.680Z,82.25
2022-08-02T02:45:40.679Z,81.95
2022-08-02T02:46:40.672Z,82.15
2022-08-02T02:47:41.823Z,82.59
2022-08-02T02:48:40.667Z,82.50
2022-08-02T02:49:40.663Z,82.59
2022-08-02T02:50:40.662Z,82.70
2022-08-02T02:51:40.667Z,82.79
2022-08-02T02:52:40.653Z,82.19
2022-08-02T02:54:31.939Z,82.70
2022-08-02T02:54:40.650Z,83.20
2022-08-02T02:55:40.646Z,83.24
2022-08-02T02:56:40.643Z,83.44
2022-08-02T02:57:40.640Z,83.44
2022-08-02T02:58:40.650Z,83.64
2022-08-02T02:59:48.959Z,83.84
2022-08-02T03:00:40.670Z,83.64
2022-08-02T03:01:56.865Z,83.78
2022-08-02T03:02:40.623Z,83.98
2022-08-02T03:03:40.621Z,83.98
2022-08-02T03:04:57.026Z,83.78
2022-08-02T03:05:40.615Z,83.78
2022-08-02T03:06:40.611Z,83.78
2022-08-02T03:07:40.608Z,83.78
2022-08-02T03:08:40.608Z,83.68
2022-08-02T03:09:40.602Z,83.82
2022-08-02T03:10:40.597Z,83.62
2022-08-02T03:11:40.599Z,83.68
2022-08-02T03:12:40.589Z,83.82
2022-08-02T03:13:40.587Z,83.72
2022-08-02T03:14:40.586Z,84.29
2022-08-02T03:15:40.585Z,83.48
2022-08-02T03:16:40.576Z,83.82
2022-08-02T03:17:40.570Z,83.62
2022-08-02T03:18:40.572Z,83.72
2022-08-02T03:19:40.567Z,83.62
2022-08-02T03:20:40.564Z,83.62
2022-08-02T03:21:40.559Z,83.82
2022-08-02T03:22:40.556Z,83.82
2022-08-02T03:23:40.554Z,83.82
2022-08-02T03:24:40.549Z,84.53
2022-08-02T03:25:40.546Z,84.43
2022-08-02T03:26:40.543Z,84.12
2022-08-02T03:27:40.542Z,84.33
2022-08-02T03:28:40.536Z,84.17
2022-08-02T03:29:40.532Z,83.96
2022-08-02T03:30:40.532Z,83.96
2022-08-02T03:31:40.527Z,84.97
2022-08-02T03:32:40.526Z,84.53
2022-08-02T03:33:40.521Z,85.14
2022-08-02T03:34:40.516Z,84.93
2022-08-02T03:35:40.508Z,85.38
2022-08-02T03:36:40.509Z,85.68
2022-08-02T03:37:40.505Z,85.68
2022-08-02T03:38:40.501Z,85.99
2022-08-02T03:39:51.091Z,85.58
2022-08-02T03:40:40.496Z,85.58
2022-08-02T03:41:40.490Z,86.08
2022-08-02T03:42:40.487Z,85.78
2022-08-02T03:43:40.479Z,85.78
2022-08-02T03:44:40.479Z,85.58
2022-08-02T03:45:40.476Z,85.68
2022-08-02T03:46:40.476Z,86.49
2022-08-02T03:47:40.471Z,86.39
2022-08-02T03:48:40.465Z,86.59
2022-08-02T03:49:40.550Z,86.59
2022-08-02T03:50:40.459Z,86.69
2022-08-02T03:51:40.456Z,86.39
2022-08-02T03:52:40.452Z,86.69
2022-08-02T03:53:40.449Z,85.84
2022-08-02T03:54:45.602Z,86.99
2022-08-02T03:55:40.439Z,86.59
2022-08-02T03:56:40.442Z,86.39
2022-08-02T03:57:40.437Z,86.19
2022-08-02T03:58:40.427Z,86.59
2022-08-02T03:59:40.430Z,86.55
2022-08-02T04:00:40.454Z,86.75
2022-08-02T04:01:40.424Z,86.35
2022-08-02T04:02:40.419Z,85.94
2022-08-02T04:03:40.417Z,85.64
2022-08-02T04:04:40.413Z,85.40
2022-08-02T04:06:03.920Z,85.50
2022-08-02T04:06:41.761Z,85.60
2022-08-02T04:08:32.681Z,86.00
2022-08-02T04:08:40.400Z,84.99
2022-08-02T04:09:40.404Z,84.59
2022-08-02T04:10:40.395Z,84.15
2022-08-02T04:11:40.391Z,83.64
2022-08-02T04:12:40.387Z,83.64
2022-08-02T04:13:40.381Z,83.74
2022-08-02T04:14:40.384Z,83.44
2022-08-02T04:15:40.379Z,83.34
2022-08-02T04:16:40.374Z,83.04
2022-08-02T04:17:40.370Z,83.04
2022-08-02T04:18:40.372Z,82.23
2022-08-02T04:19:40.366Z,82.13
2022-08-02T04:20:40.362Z,82.13
2022-08-02T04:21:49.267Z,82.23
2022-08-02T04:22:40.366Z,82.03
2022-08-02T04:23:40.355Z,82.23
2022-08-02T04:24:40.351Z,81.12
2022-08-02T04:25:41.343Z,81.52
2022-08-02T04:26:40.343Z,81.12
2022-08-02T04:28:15.650Z,81.12
2022-08-02T04:28:40.385Z,81.59
2022-08-02T04:29:43.940Z,80.78
2022-08-02T04:30:40.329Z,80.68
2022-08-02T04:31:40.327Z,80.27
2022-08-02T04:32:40.321Z,79.87
2022-08-02T04:33:40.324Z,80.18
2022-08-02T04:34:40.321Z,79.87
2022-08-02T04:35:40.320Z,79.77
2022-08-02T04:36:40.317Z,79.43
2022-08-02T04:38:08.837Z,78.63
2022-08-02T04:38:40.308Z,78.42
2022-08-02T04:39:40.303Z,78.72
2022-08-02T04:40:40.307Z,78.72
2022-08-02T04:41:43.723Z,78.72
2022-08-02T04:42:40.291Z,79.03
2022-08-02T04:43:40.291Z,78.72
2022-08-02T04:44:40.286Z,78.63
2022-08-02T04:45:40.283Z,78.72
2022-08-02T04:46:40.280Z,78.63
2022-08-02T04:48:03.680Z,78.63
2022-08-02T04:48:40.275Z,78.63
2022-08-02T04:49:40.383Z,78.69
2022-08-02T04:50:40.267Z,78.69
2022-08-02T04:51:40.268Z,79.19
2022-08-02T04:52:45.446Z,78.15
2022-08-02T04:53:40.260Z,77.83
2022-08-02T04:54:40.257Z,75.25
2022-08-02T04:55:40.254Z,73.67
2022-08-02T04:56:40.255Z,72.70
2022-08-02T04:57:40.247Z,70.56
2022-08-02T04:58:41.005Z,69.19
2022-08-02T04:59:40.243Z,68.55
2022-08-02T05:00:40.295Z,67.65
2022-08-02T05:01:40.240Z,67.55
2022-08-02T05:02:40.237Z,68.55
2022-08-02T05:03:40.233Z,68.62
2022-08-02T05:04:40.230Z,68.16
2022-08-02T05:05:40.226Z,66.46
2022-08-02T05:06:40.221Z,64.50
2022-08-02T05:07:40.224Z,61.74
2022-08-02T05:08:40.219Z,59.69
2022-08-02T05:09:40.218Z,58.67
2022-08-02T05:10:40.216Z,58.01
2022-08-02T05:11:40.213Z,57.99
2022-08-02T05:12:40.210Z,56.94
2022-08-02T05:13:58.744Z,56.02
2022-08-02T05:14:40.207Z,52.81
2022-08-02T05:15:40.206Z,51.79
2022-08-02T05:16:40.203Z,51.35
2022-08-02T05:17:47.586Z,51.62
2022-08-02T05:18:40.199Z,49.81
2022-08-02T05:19:40.199Z,48.40
2022-08-02T05:20:40.198Z,48.88
2022-08-02T05:21:40.197Z,48.48
2022-08-02T05:22:40.198Z,47.09
2022-08-02T05:23:40.196Z,47.29
2022-08-02T05:24:40.193Z,47.17
2022-08-02T05:25:40.192Z,46.18
2022-08-02T05:26:40.195Z,47.05
2022-08-02T05:27:40.199Z,44.78
2022-08-02T05:28:40.190Z,46.26
2022-08-02T05:29:40.191Z,46.75
2022-08-02T05:30:40.191Z,45.72
2022-08-02T05:31:40.192Z,45.52
2022-08-02T05:32:40.190Z,44.12
2022-08-02T05:33:40.187Z,44.20
2022-08-02T05:34:40.194Z,43.88
2022-08-02T05:35:40.190Z,43.78
2022-08-02T05:36:42.176Z,43.66
2022-08-02T05:37:40.189Z,42.28
2022-08-02T05:38:40.188Z,42.46
2022-08-02T05:39:55.602Z,43.13
2022-08-02T05:40:54.586Z,41.75
2022-08-02T05:41:40.188Z,41.04
2022-08-02T05:42:40.191Z,40.05
2022-08-02T05:43:40.190Z,40.63
2022-08-02T05:44:40.190Z,40.61
2022-08-02T05:45:40.188Z,40.21
2022-08-02T05:46:40.191Z,39.13
2022-08-02T05:47:40.195Z,39.72
2022-08-02T05:48:40.195Z,40.29
2022-08-02T05:49:40.253Z,38.52
2022-08-02T05:50:40.196Z,38.80
2022-08-02T05:51:40.199Z,37.62
2022-08-02T05:52:40.200Z,37.23
2022-08-02T05:53:40.249Z,37.40
2022-08-02T05:54:40.208Z,36.13
2022-08-02T05:55:40.203Z,35.44
2022-08-02T05:56:40.202Z,34.58
2022-08-02T05:57:43.407Z,36.15
2022-08-02T05:58:40.206Z,36.44
2022-08-02T05:59:40.210Z,35.24
2022-08-02T06:00:40.209Z,35.42
2022-08-02T06:01:40.351Z,36.01
2022-08-02T06:02:40.213Z,35.41
2022-08-02T06:03:40.214Z,35.50
2022-08-02T06:04:40.217Z,34.33
2022-08-02T06:05:40.218Z,34.61
2022-08-02T06:06:40.222Z,34.49
2022-08-02T06:07:40.222Z,33.80
2022-08-02T06:08:42.510Z,34.47
2022-08-02T06:09:40.229Z,33.28
2022-08-02T06:10:40.234Z,32.20
2022-08-02T06:11:40.237Z,33.79
2022-08-02T06:12:40.235Z,33.89
2022-08-02T06:13:40.240Z,33.50
2022-08-02T06:14:40.247Z,33.80
2022-08-02T06:15:52.857Z,33.61
2022-08-02T06:16:41.979Z,33.31
2022-08-02T06:17:41.940Z,33.22
2022-08-02T06:18:40.248Z,33.90
2022-08-02T06:19:51.760Z,34.00
2022-08-02T06:20:40.258Z,33.02
2022-08-02T06:22:34.575Z,31.94
2022-08-02T06:22:40.462Z,34.49
2022-08-02T06:23:40.271Z,33.39
2022-08-02T06:24:40.271Z,31.71
2022-08-02T06:25:50.407Z,31.81
2022-08-02T06:26:40.276Z,31.91
2022-08-02T06:27:40.278Z,31.80
2022-08-02T06:28:40.280Z,32.19
2022-08-02T06:29:40.287Z,31.90
2022-08-02T06:30:40.294Z,31.51
2022-08-02T06:31:40.305Z,32.09
2022-08-02T06:32:40.298Z,31.41
2022-08-02T06:33:40.303Z,32.27
2022-08-02T06:34:40.307Z,32.37
2022-08-02T06:35:40.309Z,32.86
2022-08-02T06:36:40.312Z,30.04
2022-08-02T06:37:40.318Z,31.45
2022-08-02T06:38:40.321Z,32.06
2022-08-02T06:39:40.326Z,32.76
2022-08-02T06:40:40.328Z,31.97
2022-08-02T06:41:40.335Z,34.64
2022-08-02T06:42:40.332Z,33.54
2022-08-02T06:43:40.351Z,34.13
2022-08-02T06:44:48.989Z,34.11
2022-08-02T06:45:40.347Z,32.34
2022-08-02T06:47:11.091Z,32.32
2022-08-02T06:47:40.361Z,32.20
2022-08-02T06:48:40.361Z,31.11
2022-08-02T06:49:52.382Z,30.51
2022-08-02T06:50:40.368Z,29.60
2022-08-02T06:51:40.373Z,28.92
2022-08-02T06:52:40.377Z,28.63
2022-08-02T06:53:40.387Z,30.66
2022-08-02T06:54:40.386Z,29.59
2022-08-02T06:55:43.996Z,28.14
2022-08-02T06:56:40.398Z,29.83
2022-08-02T06:57:40.405Z,29.16
2022-08-02T06:58:40.403Z,29.08
2022-08-02T06:59:40.409Z,29.79
2022-08-02T07:00:40.411Z,31.45
2022-08-02T07:01:40.457Z,31.26
2022-08-02T07:02:40.455Z,31.04
2022-08-02T07:03:40.427Z,30.93
2022-08-02T07:04:40.432Z,31.03
2022-08-02T07:05:40.436Z,30.64
2022-08-02T07:06:40.441Z,30.54
2022-08-02T07:07:40.445Z,30.85
2022-08-02T07:08:40.457Z,31.52
2022-08-02T07:09:56.603Z,30.93
2022-08-02T07:10:40.460Z,30.52
2022-08-02T07:11:40.469Z,31.70
2022-08-02T07:12:40.468Z,29.74
2022-08-02T07:13:40.477Z,30.35
2022-08-02T07:14:40.481Z,30.15
2022-08-02T07:15:40.487Z,31.52
2022-08-02T07:16:40.487Z,31.11
2022-08-02T07:17:40.494Z,29.95
2022-08-02T07:18:40.497Z,30.82
2022-08-02T07:19:40.504Z,31.88
2022-08-02T07:20:40.506Z,29.32
2022-08-02T07:21:56.743Z,29.10
2022-08-02T07:22:40.515Z,29.47
2022-08-02T07:23:40.524Z,29.20
2022-08-02T07:24:40.534Z,29.31
2022-08-02T07:26:03.979Z,29.24
2022-08-02T07:27:01.540Z,30.72
2022-08-02T07:27:40.542Z,30.00
2022-08-02T07:28:40.544Z,30.09
2022-08-02T07:29:46.502Z,29.00
2022-08-02T07:30:40.555Z,30.16
2022-08-02T07:31:40.564Z,28.47
2022-08-02T07:32:40.567Z,29.14
2022-08-02T07:33:43.297Z,28.85
2022-08-02T07:34:40.576Z,28.88
2022-08-02T07:35:40.579Z,29.08
2022-08-02T07:36:40.586Z,28.59
2022-08-02T07:37:55.660Z,29.47
2022-08-02T07:38:40.598Z,28.86
2022-08-02T07:39:40.601Z,28.07
2022-08-02T07:40:40.607Z,28.04
2022-08-02T07:41:40.613Z,25.69
2022-08-02T07:42:40.622Z,26.40
2022-08-02T07:43:40.626Z,27.97
2022-08-02T07:44:40.631Z,27.86
2022-08-02T07:45:45.665Z,28.05
2022-08-02T07:46:40.644Z,27.54
2022-08-02T07:47:40.645Z,26.36
2022-08-02T07:48:40.652Z,27.80
2022-08-02T07:49:40.686Z,25.96
2022-08-02T07:50:40.665Z,27.86
2022-08-02T07:51:40.675Z,27.93
2022-08-02T07:52:40.722Z,28.82
2022-08-02T07:53:50.635Z,29.52
2022-08-02T07:54:40.689Z,29.22
2022-08-02T07:55:40.900Z,30.19
2022-08-02T07:56:40.708Z,29.79
2022-08-02T07:57:45.782Z,28.32
2022-08-02T07:58:40.712Z,28.39
2022-08-02T07:59:40.718Z,28.00
2022-08-02T08:00:40.725Z,28.18
2022-08-02T08:01:40.790Z,27.39
2022-08-02T08:02:40.736Z,26.76
2022-08-02T08:03:40.745Z,26.26
2022-08-02T08:04:40.751Z,26.47
2022-08-02T08:05:40.782Z,26.26
2022-08-02T08:06:40.756Z,27.14
2022-08-02T08:07:40.775Z,26.54
2022-08-02T08:08:40.801Z,25.76
2022-08-02T08:09:40.775Z,25.36
2022-08-02T08:10:40.788Z,25.86
2022-08-02T08:11:40.796Z,26.25
2022-08-02T08:12:40.806Z,26.76
2022-08-02T08:13:40.801Z,26.59
2022-08-02T08:14:40.809Z,28.63
2022-08-02T08:15:40.814Z,26.30
2022-08-02T08:16:40.822Z,25.70
2022-08-02T08:17:40.827Z,26.28
2022-08-02T08:18:40.832Z,26.17
2022-08-02T08:19:50.847Z,25.76
2022-08-02T08:20:40.846Z,25.03
2022-08-02T08:21:40.853Z,26.31
2022-08-02T08:22:40.858Z,25.53
2022-08-02T08:23:40.865Z,26.24
2022-08-02T08:24:40.869Z,27.41
2022-08-02T08:25:41.334Z,27.44
2022-08-02T08:26:40.885Z,27.95
2022-08-02T08:27:40.891Z,28.64
2022-08-02T08:28:40.893Z,27.59
2022-08-02T08:29:40.899Z,30.55
2022-08-02T08:30:40.906Z,29.20
2022-08-02T08:31:40.908Z,30.15
2022-08-02T08:32:40.914Z,31.97
2022-08-02T08:33:40.917Z,34.06
2022-08-02T08:34:40.921Z,34.77
2022-08-02T08:35:40.928Z,36.17
2022-08-02T08:36:40.929Z,34.71
2022-08-02T08:37:40.939Z,35.61
2022-08-02T08:38:40.940Z,35.75
2022-08-02T08:39:42.046Z,36.55
2022-08-02T08:40:40.947Z,37.48
2022-08-02T08:41:40.951Z,38.78
2022-08-02T08:42:40.957Z,38.72
2022-08-02T08:43:40.956Z,39.53
2022-08-02T08:44:41.145Z,40.74
2022-08-02T08:45:40.963Z,41.53
2022-08-02T08:46:40.965Z,41.02
2022-08-02T08:47:40.977Z,42.13
2022-08-02T08:48:40.972Z,41.52
2022-08-02T08:49:52.854Z,41.52
2022-08-02T08:50:40.977Z,41.22
2022-08-02T08:51:40.981Z,40.94
2022-08-02T08:52:40.982Z,41.04
2022-08-02T08:53:41.136Z,41.14
2022-08-02T08:54:41.061Z,41.61
2022-08-02T08:55:40.991Z,41.73
2022-08-02T08:56:40.992Z,42.82
2022-08-02T08:57:40.998Z,42.21
2022-08-02T08:58:41.003Z,40.80
2022-08-02T08:59:41.006Z,39.20
2022-08-02T09:00:41.006Z,38.37
2022-08-02T09:01:49.809Z,37.64
2022-08-02T09:02:41.011Z,38.37
2022-08-02T09:03:41.013Z,36.17
2022-08-02T09:04:41.021Z,36.94
2022-08-02T09:05:41.021Z,35.71
2022-08-02T09:06:41.024Z,33.91
2022-08-02T09:07:41.027Z,32.81
2022-08-02T09:08:41.030Z,33.69
2022-08-02T09:09:41.035Z,32.72
2022-08-02T09:10:41.040Z,33.74
2022-08-02T09:11:41.042Z,34.95
2022-08-02T09:12:41.046Z,35.27
2022-08-02T09:13:46.138Z,36.38
2022-08-02T09:14:41.049Z,37.30
2022-08-02T09:15:41.059Z,37.84
2022-08-02T09:16:41.053Z,38.75
2022-08-02T09:17:41.058Z,39.16
2022-08-02T09:18:41.060Z,39.67
2022-08-02T09:19:46.274Z,39.87
2022-08-02T09:20:41.064Z,40.09
2022-08-02T09:21:41.066Z,40.90
2022-08-02T09:22:41.068Z,40.31
2022-08-02T09:23:41.074Z,40.72
2022-08-02T09:24:41.070Z,41.52
2022-08-02T09:25:41.077Z,41.33
2022-08-02T09:26:41.080Z,41.63
2022-08-02T09:27:41.081Z,42.13
2022-08-02T09:28:41.080Z,41.55
2022-08-02T09:30:05.251Z,42.65
2022-08-02T09:30:41.088Z,44.06
2022-08-02T09:31:49.411Z,41.38
2022-08-02T09:32:41.089Z,43.68
2022-08-02T09:33:41.092Z,43.01
2022-08-02T09:34:41.093Z,44.20
2022-08-02T09:36:05.235Z,43.90
2022-08-02T09:36:41.098Z,44.40
2022-08-02T09:37:42.044Z,44.27
2022-08-02T09:38:41.102Z,43.28
2022-08-02T09:39:41.103Z,44.10
2022-08-02T09:40:41.107Z,43.92
2022-08-02T09:41:41.107Z,44.42
2022-08-02T09:42:41.111Z,43.92
2022-08-02T09:44:03.220Z,43.62
2022-08-02T09:44:41.111Z,43.52
2022-08-02T09:45:41.113Z,43.92
2022-08-02T09:46:41.117Z,45.11
2022-08-02T09:47:41.116Z,44.79
2022-08-02T09:48:41.117Z,44.79
2022-08-02T09:49:41.203Z,44.99
2022-08-02T09:50:41.123Z,43.70
2022-08-02T09:51:41.121Z,43.80
2022-08-02T09:52:43.697Z,43.70
2022-08-02T09:53:41.122Z,44.20
2022-08-02T09:54:41.130Z,44.20
2022-08-02T09:55:41.131Z,44.79
2022-08-02T09:56:41.135Z,45.07
2022-08-02T09:57:41.131Z,43.88
2022-08-02T09:58:41.135Z,43.88
2022-08-02T09:59:41.134Z,43.58
2022-08-02T10:00:52.541Z,43.08
2022-08-02T10:01:46.997Z,44.40
2022-08-02T10:02:41.165Z,44.20
2022-08-02T10:03:41.143Z,45.09
2022-08-02T10:04:52.326Z,44.59
2022-08-02T10:05:43.645Z,44.20
2022-08-02T10:06:41.145Z,44.20
2022-08-02T10:07:41.145Z,45.39
2022-08-02T10:08:41.146Z,44.70
2022-08-02T10:09:46.384Z,44.48
2022-08-02T10:10:41.150Z,44.27
2022-08-02T10:11:41.153Z,44.18
2022-08-02T10:12:41.153Z,44.87
2022-08-02T10:13:41.156Z,42.88
2022-08-02T10:14:41.157Z,44.37
2022-08-02T10:15:50.281Z,44.27
2022-08-02T10:16:41.158Z,44.15
2022-08-02T10:17:41.159Z,44.06
2022-08-02T10:18:41.709Z,43.66
2022-08-02T10:20:02.754Z,44.06
2022-08-02T10:20:41.164Z,44.06
2022-08-02T10:21:46.304Z,42.86
2022-08-02T10:22:41.167Z,41.99
2022-08-02T10:23:41.166Z,41.99
2022-08-02T10:24:48.285Z,43.88
2022-08-02T10:25:41.168Z,43.78
2022-08-02T10:26:41.174Z,43.68
2022-08-02T10:28:04.228Z,43.40
2022-08-02T10:28:41.168Z,44.00
2022-08-02T10:29:50.484Z,43.90
2022-08-02T10:30:41.175Z,44.40
2022-08-02T10:31:41.179Z,43.98
2022-08-02T10:32:41.180Z,44.37
2022-08-02T10:33:41.192Z,43.88
2022-08-02T10:34:41.182Z,43.56
2022-08-02T10:35:41.184Z,43.54
2022-08-02T10:36:41.183Z,42.94
2022-08-02T10:37:41.184Z,43.34
2022-08-02T10:38:41.190Z,42.85
2022-08-02T10:39:41.189Z,42.55
2022-08-02T10:40:41.189Z,42.74
2022-08-02T10:41:41.189Z,42.85
2022-08-02T10:42:41.194Z,43.34
2022-08-02T10:43:41.193Z,43.24
2022-08-02T10:44:41.194Z,43.12
2022-08-02T10:45:41.196Z,43.42
2022-08-02T10:46:41.201Z,42.92
2022-08-02T10:47:41.200Z,42.21
2022-08-02T10:48:41.201Z,42.60
2022-08-02T10:49:41.297Z,41.61
2022-08-02T10:50:41.205Z,41.61
2022-08-02T10:51:41.273Z,40.82
2022-08-02T10:52:41.222Z,42.21
2022-08-02T10:53:41.209Z,42.11
2022-08-02T10:54:41.210Z,41.81
2022-08-02T10:55:41.214Z,41.81
2022-08-02T10:56:41.213Z,42.11
2022-08-02T10:57:41.214Z,41.81
2022-08-02T10:58:41.218Z,41.41
2022-08-02T10:59:41.218Z,41.61
2022-08-02T11:00:41.267Z,42.21
2022-08-02T11:01:41.259Z,42.21
2022-08-02T11:02:41.228Z,41.02
2022-08-02T11:03:41.260Z,41.41
2022-08-02T11:04:41.233Z,40.82
2022-08-02T11:05:43.042Z,41.33
2022-08-02T11:06:41.230Z,42.33
2022-08-02T11:07:41.232Z,41.93
2022-08-02T11:08:41.237Z,42.13
2022-08-02T11:09:41.238Z,41.75
2022-08-02T11:10:41.234Z,41.73
2022-08-02T11:11:53.761Z,41.16
2022-08-02T11:12:41.236Z,41.66
2022-08-02T11:13:41.237Z,41.55
2022-08-02T11:14:41.240Z,41.55
2022-08-02T11:15:41.244Z,41.47
2022-08-02T11:16:41.245Z,43.66
2022-08-02T11:17:41.267Z,43.46
2022-08-02T11:18:41.248Z,41.97
2022-08-02T11:19:41.531Z,41.69
2022-08-02T11:20:41.249Z,42.19
2022-08-02T11:21:41.250Z,42.79
2022-08-02T11:22:41.251Z,43.58
2022-08-02T11:23:44.755Z,42.39
2022-08-02T11:24:41.255Z,43.46
2022-08-02T11:26:03.315Z,42.57
2022-08-02T11:26:41.261Z,42.37
2022-08-02T11:27:41.260Z,42.25
2022-08-02T11:28:41.257Z,41.46
2022-08-02T11:29:41.268Z,40.88
2022-08-02T11:30:41.264Z,42.27
2022-08-02T11:31:41.308Z,41.87
2022-08-02T11:32:41.263Z,41.58
2022-08-02T11:33:41.272Z,41.89
2022-08-02T11:34:41.269Z,42.29
2022-08-02T11:35:41.269Z,43.28
2022-08-02T11:36:41.274Z,42.47
2022-08-02T11:37:41.274Z,42.39
2022-08-02T11:38:41.276Z,43.98
2022-08-02T11:39:41.277Z,42.66
2022-08-02T11:40:41.274Z,42.86
2022-08-02T11:41:47.016Z,42.57
2022-08-02T11:42:41.277Z,42.57
2022-08-02T11:43:41.279Z,42.85
2022-08-02T11:44:41.282Z,42.85
2022-08-02T11:45:41.282Z,42.65
2022-08-02T11:46:41.284Z,42.25
2022-08-02T11:47:41.294Z,41.55
2022-08-02T11:48:41.289Z,41.55
2022-08-02T11:49:41.399Z,42.45
2022-08-02T11:50:41.290Z,42.85
2022-08-02T11:51:42.479Z,42.25
2022-08-02T11:52:41.285Z,41.66
2022-08-02T11:53:41.290Z,41.75
2022-08-02T11:54:41.293Z,41.36
2022-08-02T11:55:41.292Z,42.85
2022-08-02T11:56:41.295Z,41.36
2022-08-02T11:58:02.982Z,41.93
2022-08-02T11:58:41.847Z,41.04
2022-08-02T11:59:41.299Z,42.23
2022-08-02T12:00:41.302Z,42.31
2022-08-02T12:01:45.013Z,40.92
2022-08-02T12:02:41.304Z,40.33
2022-08-02T12:03:41.358Z,40.33
2022-08-02T12:04:41.309Z,40.52
2022-08-02T12:06:04.765Z,40.52
2022-08-02T12:06:41.309Z,40.63
2022-08-02T12:07:46.054Z,39.34
2022-08-02T12:08:41.311Z,40.20
2022-08-02T12:09:41.488Z,40.42
2022-08-02T12:10:41.318Z,39.23
2022-08-02T12:11:41.324Z,39.73
2022-08-02T12:12:41.324Z,40.72
2022-08-02T12:13:41.317Z,40.52
2022-08-02T12:14:41.320Z,41.41
2022-08-02T12:15:41.323Z,40.72
2022-08-02T12:16:41.326Z,41.22
2022-08-02T12:17:41.323Z,40.82
2022-08-02T12:18:41.326Z,40.60
2022-08-02T12:19:41.326Z,40.70
2022-08-02T12:20:41.328Z,39.61
2022-08-02T12:21:41.328Z,39.34
2022-08-02T12:22:42.081Z,41.12
2022-08-02T12:23:59.940Z,40.52
2022-08-02T12:24:41.336Z,39.45
2022-08-02T12:25:41.336Z,39.95
2022-08-02T12:26:41.336Z,39.67
2022-08-02T12:27:41.364Z,40.56
2022-08-02T12:28:41.341Z,39.67
2022-08-02T12:29:59.228Z,41.36
2022-08-02T12:30:41.342Z,40.07
2022-08-02T12:31:55.823Z,40.36
2022-08-02T12:32:41.345Z,40.55
2022-08-02T12:33:41.347Z,40.34
2022-08-02T12:34:41.348Z,41.44
2022-08-02T12:35:41.350Z,40.33
2022-08-02T12:36:41.347Z,40.23
2022-08-02T12:37:41.349Z,40.92
2022-08-02T12:38:41.353Z,40.01
2022-08-02T12:39:41.354Z,39.81
2022-08-02T12:40:41.359Z,38.92
2022-08-02T12:41:54.762Z,40.01
2022-08-02T12:42:41.363Z,38.90
2022-08-02T12:43:41.358Z,38.40
2022-08-02T12:44:41.363Z,38.70
2022-08-02T12:45:43.272Z,38.11
2022-08-02T12:46:42.244Z,38.80
2022-08-02T12:47:41.365Z,39.22
2022-08-02T12:48:56.580Z,38.34
2022-08-02T12:49:41.396Z,38.64
2022-08-02T12:50:41.370Z,38.94
2022-08-02T12:51:56.512Z,38.64
2022-08-02T12:52:41.373Z,40.03